Time,TemperatureF,DewpointF,PressureIn,WindDirection,WindDirectionDegrees,WindSpeedMPH,WindSpeedGustMPH,Humidity,HourlyPrecipIn,Conditions,Clouds,dailyrainin,SoftwareType,DateUTC
2013-11-18 00:22:00,40.0,34.0,-100.00,NW,305,9.0,14.0,77,0.00,,,-99.99,,2013-11-18 06:22:00,
2013-11-18 00:42:00,40.0,33.0,-100.00,NW,320,10.0,13.0,77,0.00,,,-99.99,,2013-11-18 06:42:00,
2013-11-18 01:11:00,39.0,33.0,-100.00,NW,305,7.0,11.0,77,0.00,,,-99.99,,2013-11-18 07:11:00,
2013-11-18 01:21:00,40.0,33.0,-100.00,NW,305,7.0,14.0,77,0.00,,,-99.99,,2013-11-18 07:21:00,
2013-11-18 02:22:00,38.0,33.0,-100.00,NW,305,7.0,10.0,80,0.00,,,-99.99,,2013-11-18 08:22:00,
2013-11-18 02:42:00,38.0,32.0,-100.00,WNW,300,5.0,13.0,80,0.00,,,-99.99,,2013-11-18 08:42:00,
2013-11-18 03:12:00,37.0,32.0,-100.00,NW,305,7.0,12.0,81,0.00,,,-99.99,,2013-11-18 09:12:00,
2013-11-18 03:43:00,37.0,32.0,-100.00,WNW,285,8.0,12.0,81,0.00,,,-99.99,,2013-11-18 09:43:00,
2013-11-18 04:23:00,36.0,32.0,-100.00,WNW,285,7.0,14.0,82,0.00,,,-99.99,,2013-11-18 10:23:00,
2013-11-18 04:43:00,36.0,31.0,-100.00,WNW,300,5.0,11.0,82,0.00,,,-99.99,,2013-11-18 10:43:00,
2013-11-18 05:42:00,35.0,30.0,-100.00,NW,310,6.0,7.0,84,0.00,,,-99.99,,2013-11-18 11:42:00,
2013-11-18 06:22:00,34.0,30.0,-100.00,NW,315,7.0,12.0,84,0.00,,,-99.99,,2013-11-18 12:22:00,
2013-11-18 06:42:00,34.0,30.0,-100.00,NW,305,10.0,13.0,84,0.00,,,-99.99,,2013-11-18 12:42:00,
2013-11-18 07:11:00,34.0,30.0,-100.00,NW,310,7.0,11.0,84,0.00,,,-99.99,,2013-11-18 13:11:00,
2013-11-18 07:21:00,34.0,29.0,-100.00,NW,315,7.0,11.0,84,0.00,,,-99.99,,2013-11-18 13:21:00,
2013-11-18 09:43:00,40.0,28.0,-100.00,NW,325,9.0,15.0,62,0.00,,,-99.99,,2013-11-18 15:43:00,
2013-11-18 10:43:00,44.0,27.0,-100.00,NNW,330,7.0,13.0,51,0.00,,,-99.99,,2013-11-18 16:43:00,
2013-11-18 12:23:00,48.0,26.0,-100.00,NW,305,9.0,13.0,41,0.00,,,-99.99,,2013-11-18 18:23:00,
2013-11-18 14:21:00,51.0,26.0,-100.00,WNW,285,9.0,15.0,36,0.00,,,-99.99,,2013-11-18 20:21:00,
2013-11-18 16:22:00,50.0,24.0,-100.00,NW,315,6.0,9.0,34,0.00,,,-99.99,,2013-11-18 22:22:00,
2013-11-18 16:43:00,50.0,24.0,-100.00,NW,320,3.0,6.0,35,0.00,,,-99.99,,2013-11-18 22:43:00,
2013-11-18 18:21:00,44.0,24.0,-100.00,NNE,30,2.0,2.0,45,0.00,,,-99.99,,2013-11-19 00:21:00,
2013-11-18 18:42:00,44.0,24.0,-100.00,NE,55,2.0,3.0,43,0.00,,,-99.99,,2013-11-19 00:42:00,
2013-11-18 19:42:00,42.0,24.0,-100.00,ESE,110,6.0,6.0,49,0.00,,,-99.99,,2013-11-19 01:42:00,
2013-11-18 21:21:00,40.0,25.0,-100.00,East,85,6.0,7.0,55,0.00,,,-99.99,,2013-11-19 03:21:00,
2013-11-18 21:43:00,38.0,26.0,-100.00,East,90,7.0,9.0,61,0.00,,,-99.99,,2013-11-19 03:43:00,
2013-11-18 22:42:00,36.0,27.0,-100.00,ESE,105,8.0,9.0,68,0.00,,,-99.99,,2013-11-19 04:42:00,